sensor_id;sensor_type;location;lat;lon;timestamp;P1;durP1;ratioP1;P2;durP2;ratioP2
43678;SDS011;29279;50.858;4.392;2024-01-30T00:01:58;11.07;;;4.75;;
43678;SDS011;29279;50.858;4.392;2024-01-30T00:04:23;8.68;;;4.45;;
43678;SDS011;29279;50.858;4.392;2024-01-30T00:06:50;8.13;;;4.60;;
43678;SDS011;29279;50.858;4.392;2024-01-30T00:09:18;11.02;;;4.45;;
43678;SDS011;29279;50.858;4.392;2024-01-30T00:11:44;10.75;;;4.00;;
43678;SDS011;29279;50.858;4.392;2024-01-30T00:14:10;11.55;;;4.55;;
43678;SDS011;29279;50.858;4.392;2024-01-30T00:16:36;7.43;;;4.15;;
43678;SDS011;29279;50.858;4.392;2024-01-30T00:19:02;9.98;;;5.22;;
43678;SDS011;29279;50.858;4.392;2024-01-30T00:21:28;8.35;;;5.03;;
43678;SDS011;29279;50.858;4.392;2024-01-30T00:23:54;7.53;;;4.53;;
43678;SDS011;29279;50.858;4.392;2024-01-30T00:26:20;7.15;;;4.47;;
43678;SDS011;29279;50.858;4.392;2024-01-30T00:28:46;7.57;;;4.60;;
43678;SDS011;29279;50.858;4.392;2024-01-30T00:31:11;8.85;;;4.38;;
43678;SDS011;29279;50.858;4.392;2024-01-30T00:33:40;11.30;;;4.70;;
43678;SDS011;29279;50.858;4.392;2024-01-30T00:36:07;8.18;;;4.05;;
43678;SDS011;29279;50.858;4.392;2024-01-30T00:38:33;8.10;;;3.85;;
43678;SDS011;29279;50.858;4.392;2024-01-30T00:40:59;8.77;;;4.80;;
43678;SDS011;29279;50.858;4.392;2024-01-30T00:43:25;9.38;;;4.60;;
43678;SDS011;29279;50.858;4.392;2024-01-30T00:45:51;6.43;;;4.07;;
43678;SDS011;29279;50.858;4.392;2024-01-30T00:48:19;8.02;;;4.20;;
43678;SDS011;29279;50.858;4.392;2024-01-30T00:50:45;8.68;;;4.50;;
43678;SDS011;29279;50.858;4.392;2024-01-30T00:53:11;8.65;;;4.25;;
43678;SDS011;29279;50.858;4.392;2024-01-30T00:55:37;10.65;;;4.35;;
43678;SDS011;29279;50.858;4.392;2024-01-30T00:58:03;9.40;;;4.25;;
43678;SDS011;29279;50.858;4.392;2024-01-30T01:00:29;8.15;;;4.43;;
43678;SDS011;29279;50.858;4.392;2024-01-30T01:02:56;8.43;;;4.43;;
43678;SDS011;29279;50.858;4.392;2024-01-30T01:05:21;7.80;;;4.68;;
43678;SDS011;29279;50.858;4.392;2024-01-30T01:07:47;12.60;;;4.32;;
43678;SDS011;29279;50.858;4.392;2024-01-30T01:10:13;11.82;;;4.43;;
43678;SDS011;29279;50.858;4.392;2024-01-30T01:12:41;6.60;;;3.97;;
43678;SDS011;29279;50.858;4.392;2024-01-30T01:15:07;8.82;;;4.35;;
43678;SDS011;29279;50.858;4.392;2024-01-30T01:17:35;8.80;;;4.30;;
43678;SDS011;29279;50.858;4.392;2024-01-30T01:20:01;8.57;;;4.25;;
43678;SDS011;29279;50.858;4.392;2024-01-30T01:22:27;8.52;;;4.20;;
43678;SDS011;29279;50.858;4.392;2024-01-30T01:24:53;14.00;;;3.90;;
43678;SDS011;29279;50.858;4.392;2024-01-30T01:27:19;9.52;;;4.50;;
43678;SDS011;29279;50.858;4.392;2024-01-30T01:29:44;8.32;;;4.15;;
43678;SDS011;29279;50.858;4.392;2024-01-30T01:32:10;8.38;;;4.30;;
43678;SDS011;29279;50.858;4.392;2024-01-30T01:34:36;10.35;;;3.95;;
43678;SDS011;29279;50.858;4.392;2024-01-30T01:37:02;9.70;;;4.40;;
43678;SDS011;29279;50.858;4.392;2024-01-30T01:39:27;8.98;;;4.15;;
43678;SDS011;29279;50.858;4.392;2024-01-30T01:41:53;9.65;;;4.22;;
43678;SDS011;29279;50.858;4.392;2024-01-30T01:44:19;6.53;;;3.63;;
43678;SDS011;29279;50.858;4.392;2024-01-30T01:46:44;7.25;;;4.07;;
43678;SDS011;29279;50.858;4.392;2024-01-30T01:49:11;8.07;;;4.55;;
43678;SDS011;29279;50.858;4.392;2024-01-30T01:51:40;10.38;;;4.40;;
43678;SDS011;29279;50.858;4.392;2024-01-30T01:54:07;8.35;;;4.03;;
43678;SDS011;29279;50.858;4.392;2024-01-30T01:56:33;7.32;;;3.78;;
43678;SDS011;29279;50.858;4.392;2024-01-30T01:59:04;7.97;;;3.80;;
43678;SDS011;29279;50.858;4.392;2024-01-30T02:01:32;8.20;;;4.43;;
43678;SDS011;29279;50.858;4.392;2024-01-30T02:03:59;7.55;;;3.90;;
43678;SDS011;29279;50.858;4.392;2024-01-30T02:06:25;10.73;;;3.42;;
43678;SDS011;29279;50.858;4.392;2024-01-30T02:08:52;8.15;;;3.95;;
43678;SDS011;29279;50.858;4.392;2024-01-30T02:11:18;9.15;;;4.68;;
43678;SDS011;29279;50.858;4.392;2024-01-30T02:13:44;8.25;;;3.80;;
43678;SDS011;29279;50.858;4.392;2024-01-30T02:16:10;7.75;;;4.47;;
43678;SDS011;29279;50.858;4.392;2024-01-30T02:18:36;9.93;;;4.25;;
43678;SDS011;29279;50.858;4.392;2024-01-30T02:21:07;7.53;;;3.80;;
43678;SDS011;29279;50.858;4.392;2024-01-30T02:23:33;7.78;;;4.20;;
43678;SDS011;29279;50.858;4.392;2024-01-30T02:25:59;8.65;;;3.78;;
43678;SDS011;29279;50.858;4.392;2024-01-30T02:28:25;11.48;;;4.28;;
43678;SDS011;29279;50.858;4.392;2024-01-30T02:30:52;7.25;;;3.97;;
43678;SDS011;29279;50.858;4.392;2024-01-30T02:33:18;6.72;;;4.30;;
43678;SDS011;29279;50.858;4.392;2024-01-30T02:35:44;9.73;;;3.97;;
43678;SDS011;29279;50.858;4.392;2024-01-30T02:38:09;8.43;;;3.80;;
43678;SDS011;29279;50.858;4.392;2024-01-30T02:40:35;11.27;;;4.55;;
43678;SDS011;29279;50.858;4.392;2024-01-30T02:43:01;10.80;;;3.92;;
43678;SDS011;29279;50.858;4.392;2024-01-30T02:45:28;9.57;;;4.40;;
43678;SDS011;29279;50.858;4.392;2024-01-30T02:47:54;8.48;;;4.20;;
43678;SDS011;29279;50.858;4.392;2024-01-30T02:50:22;10.68;;;3.58;;
43678;SDS011;29279;50.858;4.392;2024-01-30T02:52:48;8.27;;;4.18;;
43678;SDS011;29279;50.858;4.392;2024-01-30T02:55:13;6.57;;;3.88;;
43678;SDS011;29279;50.858;4.392;2024-01-30T02:57:42;8.18;;;3.90;;
43678;SDS011;29279;50.858;4.392;2024-01-30T03:00:08;7.57;;;3.67;;
43678;SDS011;29279;50.858;4.392;2024-01-30T03:02:34;9.13;;;4.05;;
43678;SDS011;29279;50.858;4.392;2024-01-30T03:05:01;10.40;;;4.15;;
43678;SDS011;29279;50.858;4.392;2024-01-30T03:07:26;8.77;;;4.10;;
43678;SDS011;29279;50.858;4.392;2024-01-30T03:09:52;8.98;;;4.45;;
43678;SDS011;29279;50.858;4.392;2024-01-30T03:12:20;12.38;;;4.43;;
43678;SDS011;29279;50.858;4.392;2024-01-30T03:14:46;8.55;;;4.15;;
43678;SDS011;29279;50.858;4.392;2024-01-30T03:17:12;10.45;;;4.55;;
43678;SDS011;29279;50.858;4.392;2024-01-30T03:19:37;9.30;;;4.22;;
43678;SDS011;29279;50.858;4.392;2024-01-30T03:22:03;9.98;;;4.45;;
43678;SDS011;29279;50.858;4.392;2024-01-30T03:24:29;13.95;;;4.22;;
43678;SDS011;29279;50.858;4.392;2024-01-30T03:26:57;6.78;;;4.13;;
43678;SDS011;29279;50.858;4.392;2024-01-30T03:29:23;9.38;;;4.05;;
43678;SDS011;29279;50.858;4.392;2024-01-30T03:31:49;11.35;;;4.55;;
43678;SDS011;29279;50.858;4.392;2024-01-30T03:34:14;5.90;;;3.75;;
43678;SDS011;29279;50.858;4.392;2024-01-30T03:36:40;10.45;;;4.40;;
43678;SDS011;29279;50.858;4.392;2024-01-30T03:39:06;12.73;;;5.00;;
43678;SDS011;29279;50.858;4.392;2024-01-30T03:41:32;13.90;;;4.07;;
43678;SDS011;29279;50.858;4.392;2024-01-30T03:43:59;11.85;;;4.38;;
43678;SDS011;29279;50.858;4.392;2024-01-30T03:46:24;12.73;;;4.57;;
43678;SDS011;29279;50.858;4.392;2024-01-30T03:48:50;9.23;;;4.28;;
43678;SDS011;29279;50.858;4.392;2024-01-30T03:51:16;9.65;;;5.10;;
43678;SDS011;29279;50.858;4.392;2024-01-30T03:53:42;11.95;;;4.70;;
43678;SDS011;29279;50.858;4.392;2024-01-30T03:56:08;8.15;;;4.55;;
43678;SDS011;29279;50.858;4.392;2024-01-30T03:58:34;10.05;;;3.97;;
43678;SDS011;29279;50.858;4.392;2024-01-30T04:01:00;17.55;;;5.10;;
43678;SDS011;29279;50.858;4.392;2024-01-30T04:03:26;9.55;;;4.63;;
43678;SDS011;29279;50.858;4.392;2024-01-30T04:05:52;7.45;;;4.65;;
43678;SDS011;29279;50.858;4.392;2024-01-30T04:08:18;13.18;;;4.10;;
43678;SDS011;29279;50.858;4.392;2024-01-30T04:10:44;11.13;;;4.18;;
43678;SDS011;29279;50.858;4.392;2024-01-30T04:13:09;8.32;;;4.60;;
43678;SDS011;29279;50.858;4.392;2024-01-30T04:15:35;8.25;;;3.97;;
43678;SDS011;29279;50.858;4.392;2024-01-30T04:18:04;12.50;;;4.93;;
43678;SDS011;29279;50.858;4.392;2024-01-30T04:20:29;10.30;;;4.93;;
43678;SDS011;29279;50.858;4.392;2024-01-30T04:22:55;21.67;;;6.03;;
43678;SDS011;29279;50.858;4.392;2024-01-30T04:25:21;10.80;;;4.70;;
43678;SDS011;29279;50.858;4.392;2024-01-30T04:27:47;7.68;;;4.18;;
43678;SDS011;29279;50.858;4.392;2024-01-30T04:30:13;9.63;;;4.95;;
43678;SDS011;29279;50.858;4.392;2024-01-30T04:32:39;11.00;;;4.63;;
43678;SDS011;29279;50.858;4.392;2024-01-30T04:35:04;12.90;;;5.50;;
43678;SDS011;29279;50.858;4.392;2024-01-30T04:37:30;17.92;;;5.28;;
43678;SDS011;29279;50.858;4.392;2024-01-30T04:39:56;11.65;;;4.72;;
43678;SDS011;29279;50.858;4.392;2024-01-30T04:42:22;15.18;;;4.78;;
43678;SDS011;29279;50.858;4.392;2024-01-30T04:44:48;8.25;;;4.00;;
43678;SDS011;29279;50.858;4.392;2024-01-30T04:47:13;12.75;;;5.30;;
43678;SDS011;29279;50.858;4.392;2024-01-30T04:49:39;15.35;;;4.50;;
43678;SDS011;29279;50.858;4.392;2024-01-30T04:52:05;9.05;;;5.07;;
43678;SDS011;29279;50.858;4.392;2024-01-30T04:54:31;9.43;;;4.57;;
43678;SDS011;29279;50.858;4.392;2024-01-30T04:56:57;10.88;;;5.03;;
43678;SDS011;29279;50.858;4.392;2024-01-30T04:59:23;8.68;;;4.55;;
43678;SDS011;29279;50.858;4.392;2024-01-30T05:01:49;12.15;;;5.22;;
43678;SDS011;29279;50.858;4.392;2024-01-30T05:04:15;8.98;;;4.88;;
43678;SDS011;29279;50.858;4.392;2024-01-30T05:06:40;9.68;;;4.68;;
43678;SDS011;29279;50.858;4.392;2024-01-30T05:09:06;12.73;;;5.13;;
43678;SDS011;29279;50.858;4.392;2024-01-30T05:11:39;11.48;;;4.35;;
43678;SDS011;29279;50.858;4.392;2024-01-30T05:14:05;11.55;;;4.65;;
43678;SDS011;29279;50.858;4.392;2024-01-30T05:16:31;9.77;;;4.43;;
43678;SDS011;29279;50.858;4.392;2024-01-30T05:18:57;7.00;;;4.28;;
43678;SDS011;29279;50.858;4.392;2024-01-30T05:21:24;10.18;;;4.20;;
43678;SDS011;29279;50.858;4.392;2024-01-30T05:23:50;14.10;;;4.82;;
43678;SDS011;29279;50.858;4.392;2024-01-30T05:26:15;10.90;;;5.00;;
43678;SDS011;29279;50.858;4.392;2024-01-30T05:28:41;9.07;;;4.70;;
43678;SDS011;29279;50.858;4.392;2024-01-30T05:31:09;9.50;;;4.88;;
43678;SDS011;29279;50.858;4.392;2024-01-30T05:33:35;11.70;;;5.20;;
43678;SDS011;29279;50.858;4.392;2024-01-30T05:36:01;7.88;;;4.32;;
43678;SDS011;29279;50.858;4.392;2024-01-30T05:38:26;9.90;;;5.22;;
43678;SDS011;29279;50.858;4.392;2024-01-30T05:40:52;8.63;;;4.95;;
43678;SDS011;29279;50.858;4.392;2024-01-30T05:43:18;10.57;;;4.57;;
43678;SDS011;29279;50.858;4.392;2024-01-30T05:45:43;10.68;;;4.88;;
43678;SDS011;29279;50.858;4.392;2024-01-30T05:48:09;11.75;;;5.10;;
43678;SDS011;29279;50.858;4.392;2024-01-30T05:50:35;19.08;;;5.43;;
43678;SDS011;29279;50.858;4.392;2024-01-30T05:53:02;10.82;;;5.28;;
43678;SDS011;29279;50.858;4.392;2024-01-30T05:55:27;12.43;;;5.00;;
43678;SDS011;29279;50.858;4.392;2024-01-30T05:57:53;8.65;;;4.70;;
43678;SDS011;29279;50.858;4.392;2024-01-30T06:00:19;11.13;;;5.13;;
43678;SDS011;29279;50.858;4.392;2024-01-30T06:02:44;14.40;;;5.20;;
43678;SDS011;29279;50.858;4.392;2024-01-30T06:05:10;10.98;;;5.50;;
43678;SDS011;29279;50.858;4.392;2024-01-30T06:07:36;10.52;;;5.00;;
43678;SDS011;29279;50.858;4.392;2024-01-30T06:10:05;11.35;;;4.72;;
43678;SDS011;29279;50.858;4.392;2024-01-30T06:12:33;9.70;;;4.88;;
43678;SDS011;29279;50.858;4.392;2024-01-30T06:15:00;14.07;;;4.90;;
43678;SDS011;29279;50.858;4.392;2024-01-30T06:17:25;11.55;;;4.85;;
43678;SDS011;29279;50.858;4.392;2024-01-30T06:19:51;8.85;;;5.00;;
43678;SDS011;29279;50.858;4.392;2024-01-30T06:22:17;13.98;;;5.22;;
43678;SDS011;29279;50.858;4.392;2024-01-30T06:24:43;12.27;;;6.10;;
43678;SDS011;29279;50.858;4.392;2024-01-30T06:27:15;12.02;;;5.20;;
43678;SDS011;29279;50.858;4.392;2024-01-30T06:29:42;10.05;;;4.82;;
43678;SDS011;29279;50.858;4.392;2024-01-30T06:32:08;12.40;;;5.53;;
43678;SDS011;29279;50.858;4.392;2024-01-30T06:34:34;12.27;;;5.70;;
43678;SDS011;29279;50.858;4.392;2024-01-30T06:36:59;10.13;;;5.18;;
43678;SDS011;29279;50.858;4.392;2024-01-30T06:39:26;13.68;;;5.38;;
43678;SDS011;29279;50.858;4.392;2024-01-30T06:41:51;12.77;;;5.35;;
43678;SDS011;29279;50.858;4.392;2024-01-30T06:44:17;12.55;;;5.50;;
43678;SDS011;29279;50.858;4.392;2024-01-30T06:46:43;9.80;;;5.18;;
43678;SDS011;29279;50.858;4.392;2024-01-30T06:49:09;12.23;;;5.78;;
43678;SDS011;29279;50.858;4.392;2024-01-30T06:51:34;12.05;;;6.30;;
43678;SDS011;29279;50.858;4.392;2024-01-30T06:54:00;12.52;;;6.20;;
43678;SDS011;29279;50.858;4.392;2024-01-30T06:56:25;14.63;;;6.00;;
43678;SDS011;29279;50.858;4.392;2024-01-30T06:58:52;10.18;;;5.80;;
43678;SDS011;29279;50.858;4.392;2024-01-30T07:01:18;22.08;;;6.32;;
43678;SDS011;29279;50.858;4.392;2024-01-30T07:03:43;15.60;;;6.20;;
43678;SDS011;29279;50.858;4.392;2024-01-30T07:06:09;14.20;;;5.93;;
43678;SDS011;29279;50.858;4.392;2024-01-30T07:08:36;15.38;;;6.20;;
43678;SDS011;29279;50.858;4.392;2024-01-30T07:11:04;14.75;;;5.68;;
43678;SDS011;29279;50.858;4.392;2024-01-30T07:13:34;12.57;;;5.50;;
43678;SDS011;29279;50.858;4.392;2024-01-30T07:16:00;14.13;;;6.00;;
43678;SDS011;29279;50.858;4.392;2024-01-30T07:18:25;17.10;;;5.53;;
43678;SDS011;29279;50.858;4.392;2024-01-30T07:20:51;14.60;;;6.35;;
43678;SDS011;29279;50.858;4.392;2024-01-30T07:23:17;12.75;;;6.07;;
43678;SDS011;29279;50.858;4.392;2024-01-30T07:25:46;18.10;;;6.03;;
43678;SDS011;29279;50.858;4.392;2024-01-30T07:28:14;10.02;;;5.65;;
43678;SDS011;29279;50.858;4.392;2024-01-30T07:30:43;15.43;;;6.70;;
43678;SDS011;29279;50.858;4.392;2024-01-30T07:33:09;16.23;;;5.72;;
43678;SDS011;29279;50.858;4.392;2024-01-30T07:35:35;16.08;;;6.28;;
43678;SDS011;29279;50.858;4.392;2024-01-30T07:38:01;19.48;;;7.30;;
43678;SDS011;29279;50.858;4.392;2024-01-30T07:40:27;24.30;;;6.75;;
43678;SDS011;29279;50.858;4.392;2024-01-30T07:42:53;21.35;;;7.15;;
43678;SDS011;29279;50.858;4.392;2024-01-30T07:45:19;15.77;;;6.22;;
43678;SDS011;29279;50.858;4.392;2024-01-30T07:47:49;18.40;;;6.68;;
43678;SDS011;29279;50.858;4.392;2024-01-30T07:50:15;18.42;;;7.22;;
43678;SDS011;29279;50.858;4.392;2024-01-30T07:52:41;15.05;;;6.53;;
43678;SDS011;29279;50.858;4.392;2024-01-30T07:55:07;15.55;;;6.53;;
43678;SDS011;29279;50.858;4.392;2024-01-30T07:57:33;20.42;;;7.15;;
43678;SDS011;29279;50.858;4.392;2024-01-30T07:59:59;18.27;;;7.30;;
43678;SDS011;29279;50.858;4.392;2024-01-30T08:02:25;22.05;;;7.22;;
43678;SDS011;29279;50.858;4.392;2024-01-30T08:04:51;15.00;;;7.03;;
43678;SDS011;29279;50.858;4.392;2024-01-30T08:07:17;22.63;;;8.43;;
43678;SDS011;29279;50.858;4.392;2024-01-30T08:09:43;25.55;;;7.93;;
43678;SDS011;29279;50.858;4.392;2024-01-30T08:12:12;24.17;;;7.43;;
43678;SDS011;29279;50.858;4.392;2024-01-30T08:14:38;23.92;;;8.85;;
43678;SDS011;29279;50.858;4.392;2024-01-30T08:17:04;20.25;;;8.05;;
43678;SDS011;29279;50.858;4.392;2024-01-30T08:19:33;22.90;;;7.90;;
43678;SDS011;29279;50.858;4.392;2024-01-30T08:21:58;15.55;;;8.30;;
43678;SDS011;29279;50.858;4.392;2024-01-30T08:24:24;18.23;;;7.53;;
43678;SDS011;29279;50.858;4.392;2024-01-30T08:26:50;16.67;;;7.88;;
43678;SDS011;29279;50.858;4.392;2024-01-30T08:29:16;18.50;;;8.52;;
43678;SDS011;29279;50.858;4.392;2024-01-30T08:31:41;21.40;;;8.35;;
43678;SDS011;29279;50.858;4.392;2024-01-30T08:34:10;19.98;;;8.45;;
43678;SDS011;29279;50.858;4.392;2024-01-30T08:36:36;23.05;;;8.48;;
43678;SDS011;29279;50.858;4.392;2024-01-30T08:39:02;20.77;;;8.05;;
43678;SDS011;29279;50.858;4.392;2024-01-30T08:41:28;15.65;;;6.88;;
43678;SDS011;29279;50.858;4.392;2024-01-30T08:43:53;18.60;;;7.40;;
43678;SDS011;29279;50.858;4.392;2024-01-30T08:46:19;20.10;;;7.50;;
43678;SDS011;29279;50.858;4.392;2024-01-30T08:48:45;20.02;;;7.20;;
43678;SDS011;29279;50.858;4.392;2024-01-30T08:51:12;22.48;;;8.40;;
43678;SDS011;29279;50.858;4.392;2024-01-30T08:53:39;28.73;;;10.02;;
43678;SDS011;29279;50.858;4.392;2024-01-30T08:56:05;21.63;;;8.63;;
43678;SDS011;29279;50.858;4.392;2024-01-30T08:58:31;20.90;;;7.60;;
43678;SDS011;29279;50.858;4.392;2024-01-30T09:00:58;21.13;;;7.88;;
43678;SDS011;29279;50.858;4.392;2024-01-30T09:03:24;13.82;;;7.40;;
43678;SDS011;29279;50.858;4.392;2024-01-30T09:05:49;19.65;;;8.27;;
43678;SDS011;29279;50.858;4.392;2024-01-30T09:08:18;20.92;;;7.28;;
43678;SDS011;29279;50.858;4.392;2024-01-30T09:10:44;22.98;;;8.25;;
43678;SDS011;29279;50.858;4.392;2024-01-30T09:13:10;20.80;;;8.18;;
43678;SDS011;29279;50.858;4.392;2024-01-30T09:15:35;25.30;;;7.45;;
43678;SDS011;29279;50.858;4.392;2024-01-30T09:18:01;25.33;;;7.53;;
43678;SDS011;29279;50.858;4.392;2024-01-30T09:20:27;18.55;;;8.15;;
43678;SDS011;29279;50.858;4.392;2024-01-30T09:22:52;20.95;;;8.43;;
43678;SDS011;29279;50.858;4.392;2024-01-30T09:25:18;21.85;;;7.70;;
43678;SDS011;29279;50.858;4.392;2024-01-30T09:27:46;22.20;;;7.88;;
43678;SDS011;29279;50.858;4.392;2024-01-30T09:30:15;23.15;;;8.85;;
43678;SDS011;29279;50.858;4.392;2024-01-30T09:32:40;32.17;;;7.65;;
43678;SDS011;29279;50.858;4.392;2024-01-30T09:35:07;25.02;;;8.00;;
43678;SDS011;29279;50.858;4.392;2024-01-30T09:37:32;19.23;;;7.85;;
43678;SDS011;29279;50.858;4.392;2024-01-30T09:39:58;20.80;;;8.90;;
43678;SDS011;29279;50.858;4.392;2024-01-30T09:44:50;23.35;;;8.23;;
43678;SDS011;29279;50.858;4.392;2024-01-30T09:47:17;22.85;;;9.25;;
43678;SDS011;29279;50.858;4.392;2024-01-30T09:49:43;29.27;;;10.70;;
43678;SDS011;29279;50.858;4.392;2024-01-30T09:52:09;28.45;;;8.93;;
43678;SDS011;29279;50.858;4.392;2024-01-30T09:54:35;22.08;;;9.20;;
43678;SDS011;29279;50.858;4.392;2024-01-30T09:57:03;22.05;;;9.25;;
43678;SDS011;29279;50.858;4.392;2024-01-30T09:59:29;26.35;;;9.90;;
43678;SDS011;29279;50.858;4.392;2024-01-30T10:01:54;27.08;;;10.63;;
43678;SDS011;29279;50.858;4.392;2024-01-30T10:04:21;26.63;;;10.63;;
43678;SDS011;29279;50.858;4.392;2024-01-30T10:06:47;26.45;;;9.60;;
43678;SDS011;29279;50.858;4.392;2024-01-30T10:09:13;29.77;;;10.63;;
43678;SDS011;29279;50.858;4.392;2024-01-30T10:11:39;21.55;;;10.38;;
43678;SDS011;29279;50.858;4.392;2024-01-30T10:14:04;22.50;;;10.38;;
43678;SDS011;29279;50.858;4.392;2024-01-30T10:16:30;22.17;;;10.02;;
43678;SDS011;29279;50.858;4.392;2024-01-30T10:18:56;23.73;;;10.38;;
43678;SDS011;29279;50.858;4.392;2024-01-30T10:21:21;23.98;;;10.18;;
43678;SDS011;29279;50.858;4.392;2024-01-30T10:23:48;22.48;;;9.75;;
43678;SDS011;29279;50.858;4.392;2024-01-30T10:26:15;29.98;;;11.15;;
43678;SDS011;29279;50.858;4.392;2024-01-30T10:28:42;22.63;;;10.52;;
43678;SDS011;29279;50.858;4.392;2024-01-30T10:31:08;26.98;;;11.27;;
43678;SDS011;29279;50.858;4.392;2024-01-30T10:33:33;26.02;;;9.18;;
43678;SDS011;29279;50.858;4.392;2024-01-30T10:36:03;24.98;;;9.85;;
43678;SDS011;29279;50.858;4.392;2024-01-30T10:38:30;28.85;;;10.57;;
43678;SDS011;29279;50.858;4.392;2024-01-30T10:40:57;25.67;;;10.18;;
43678;SDS011;29279;50.858;4.392;2024-01-30T10:43:31;18.58;;;8.80;;
43678;SDS011;29279;50.858;4.392;2024-01-30T10:46:08;22.63;;;7.10;;
43678;SDS011;29279;50.858;4.392;2024-01-30T10:49:18;30.15;;;8.90;;
43678;SDS011;29279;50.858;4.392;2024-01-30T10:51:39;21.40;;;8.10;;
43678;SDS011;29279;50.858;4.392;2024-01-30T10:54:07;22.20;;;8.88;;
43678;SDS011;29279;50.858;4.392;2024-01-30T10:56:35;20.25;;;7.47;;
43678;SDS011;29279;50.858;4.392;2024-01-30T10:59:02;27.50;;;8.60;;
43678;SDS011;29279;50.858;4.392;2024-01-30T11:01:29;17.27;;;6.75;;
43678;SDS011;29279;50.858;4.392;2024-01-30T11:03:55;15.77;;;7.20;;
43678;SDS011;29279;50.858;4.392;2024-01-30T11:06:22;15.07;;;6.60;;
43678;SDS011;29279;50.858;4.392;2024-01-30T11:09:04;21.60;;;7.90;;
43678;SDS011;29279;50.858;4.392;2024-01-30T11:14:16;16.17;;;6.18;;
43678;SDS011;29279;50.858;4.392;2024-01-30T11:16:49;23.10;;;6.28;;
43678;SDS011;29279;50.858;4.392;2024-01-30T11:19:14;12.43;;;5.82;;
43678;SDS011;29279;50.858;4.392;2024-01-30T11:21:43;18.38;;;5.22;;
43678;SDS011;29279;50.858;4.392;2024-01-30T11:24:09;17.13;;;5.00;;
43678;SDS011;29279;50.858;4.392;2024-01-30T11:26:34;18.42;;;5.22;;
43678;SDS011;29279;50.858;4.392;2024-01-30T11:29:03;16.60;;;5.07;;
43678;SDS011;29279;50.858;4.392;2024-01-30T11:31:29;9.35;;;3.72;;
43678;SDS011;29279;50.858;4.392;2024-01-30T11:33:55;8.65;;;2.83;;
43678;SDS011;29279;50.858;4.392;2024-01-30T11:36:25;12.40;;;3.78;;
43678;SDS011;29279;50.858;4.392;2024-01-30T11:38:54;10.95;;;3.58;;
43678;SDS011;29279;50.858;4.392;2024-01-30T11:41:20;8.98;;;2.10;;
43678;SDS011;29279;50.858;4.392;2024-01-30T11:43:56;8.23;;;2.20;;
43678;SDS011;29279;50.858;4.392;2024-01-30T11:46:22;9.45;;;2.17;;
43678;SDS011;29279;50.858;4.392;2024-01-30T11:48:50;9.85;;;1.80;;
43678;SDS011;29279;50.858;4.392;2024-01-30T11:51:17;10.93;;;2.20;;
43678;SDS011;29279;50.858;4.392;2024-01-30T11:53:45;11.57;;;2.38;;
43678;SDS011;29279;50.858;4.392;2024-01-30T11:56:14;8.10;;;1.25;;
43678;SDS011;29279;50.858;4.392;2024-01-30T11:58:43;4.72;;;1.30;;
43678;SDS011;29279;50.858;4.392;2024-01-30T12:01:10;9.63;;;1.50;;
43678;SDS011;29279;50.858;4.392;2024-01-30T12:03:36;4.88;;;0.90;;
43678;SDS011;29279;50.858;4.392;2024-01-30T12:06:02;7.57;;;1.42;;
43678;SDS011;29279;50.858;4.392;2024-01-30T12:08:28;6.95;;;1.25;;
43678;SDS011;29279;50.858;4.392;2024-01-30T12:10:57;8.20;;;1.40;;
43678;SDS011;29279;50.858;4.392;2024-01-30T12:13:23;4.57;;;1.08;;
43678;SDS011;29279;50.858;4.392;2024-01-30T12:15:50;7.70;;;1.98;;
43678;SDS011;29279;50.858;4.392;2024-01-30T12:18:18;7.03;;;1.25;;
43678;SDS011;29279;50.858;4.392;2024-01-30T12:20:45;18.55;;;2.92;;
43678;SDS011;29279;50.858;4.392;2024-01-30T12:23:13;4.68;;;1.13;;
43678;SDS011;29279;50.858;4.392;2024-01-30T12:25:39;6.68;;;1.17;;
43678;SDS011;29279;50.858;4.392;2024-01-30T12:28:04;5.03;;;1.17;;
43678;SDS011;29279;50.858;4.392;2024-01-30T12:30:30;15.32;;;2.58;;
43678;SDS011;29279;50.858;4.392;2024-01-30T12:32:56;8.30;;;1.63;;
43678;SDS011;29279;50.858;4.392;2024-01-30T12:35:23;4.43;;;1.00;;
43678;SDS011;29279;50.858;4.392;2024-01-30T12:37:48;5.50;;;1.02;;
43678;SDS011;29279;50.858;4.392;2024-01-30T12:40:15;4.47;;;0.80;;
43678;SDS011;29279;50.858;4.392;2024-01-30T12:42:41;8.52;;;1.00;;
43678;SDS011;29279;50.858;4.392;2024-01-30T12:45:08;9.57;;;1.13;;
43678;SDS011;29279;50.858;4.392;2024-01-30T12:47:34;5.35;;;1.52;;
43678;SDS011;29279;50.858;4.392;2024-01-30T12:50:00;2.70;;;0.70;;
43678;SDS011;29279;50.858;4.392;2024-01-30T12:52:25;5.38;;;1.20;;
43678;SDS011;29279;50.858;4.392;2024-01-30T12:54:51;5.40;;;0.82;;
43678;SDS011;29279;50.858;4.392;2024-01-30T12:57:17;8.90;;;1.00;;
43678;SDS011;29279;50.858;4.392;2024-01-30T12:59:44;5.07;;;1.27;;
43678;SDS011;29279;50.858;4.392;2024-01-30T13:02:13;5.95;;;1.08;;
43678;SDS011;29279;50.858;4.392;2024-01-30T13:05:10;9.27;;;1.40;;
43678;SDS011;29279;50.858;4.392;2024-01-30T13:07:36;11.23;;;1.25;;
43678;SDS011;29279;50.858;4.392;2024-01-30T13:10:05;8.60;;;1.10;;
43678;SDS011;29279;50.858;4.392;2024-01-30T13:12:33;4.95;;;1.15;;
43678;SDS011;29279;50.858;4.392;2024-01-30T13:15:01;3.38;;;0.98;;
43678;SDS011;29279;50.858;4.392;2024-01-30T13:17:27;6.55;;;0.98;;
43678;SDS011;29279;50.858;4.392;2024-01-30T13:19:53;7.03;;;1.45;;
43678;SDS011;29279;50.858;4.392;2024-01-30T13:22:19;10.43;;;1.45;;
43678;SDS011;29279;50.858;4.392;2024-01-30T13:24:48;5.13;;;1.23;;
43678;SDS011;29279;50.858;4.392;2024-01-30T13:27:14;6.95;;;1.10;;
43678;SDS011;29279;50.858;4.392;2024-01-30T13:29:41;6.90;;;1.40;;
43678;SDS011;29279;50.858;4.392;2024-01-30T13:32:07;7.55;;;1.00;;
43678;SDS011;29279;50.858;4.392;2024-01-30T13:34:32;11.20;;;1.58;;
43678;SDS011;29279;50.858;4.392;2024-01-30T13:36:58;7.20;;;1.50;;
43678;SDS011;29279;50.858;4.392;2024-01-30T13:39:24;11.75;;;1.00;;
43678;SDS011;29279;50.858;4.392;2024-01-30T13:41:50;5.88;;;1.65;;
43678;SDS011;29279;50.858;4.392;2024-01-30T13:44:16;12.48;;;1.60;;
43678;SDS011;29279;50.858;4.392;2024-01-30T13:46:42;9.30;;;1.58;;
43678;SDS011;29279;50.858;4.392;2024-01-30T13:49:08;8.07;;;1.52;;
43678;SDS011;29279;50.858;4.392;2024-01-30T13:51:34;8.98;;;1.55;;
43678;SDS011;29279;50.858;4.392;2024-01-30T13:53:59;7.03;;;1.45;;
43678;SDS011;29279;50.858;4.392;2024-01-30T13:56:25;6.47;;;1.17;;
43678;SDS011;29279;50.858;4.392;2024-01-30T13:58:51;10.13;;;1.83;;
43678;SDS011;29279;50.858;4.392;2024-01-30T14:01:18;3.70;;;1.00;;
43678;SDS011;29279;50.858;4.392;2024-01-30T14:03:44;12.45;;;1.77;;
43678;SDS011;29279;50.858;4.392;2024-01-30T14:06:11;6.40;;;1.17;;
43678;SDS011;29279;50.858;4.392;2024-01-30T14:08:37;9.02;;;1.05;;
43678;SDS011;29279;50.858;4.392;2024-01-30T14:11:03;10.65;;;1.50;;
43678;SDS011;29279;50.858;4.392;2024-01-30T14:13:28;7.10;;;1.08;;
43678;SDS011;29279;50.858;4.392;2024-01-30T14:15:55;5.63;;;1.10;;
43678;SDS011;29279;50.858;4.392;2024-01-30T14:18:21;3.03;;;0.82;;
43678;SDS011;29279;50.858;4.392;2024-01-30T14:20:47;10.57;;;1.52;;
43678;SDS011;29279;50.858;4.392;2024-01-30T14:23:17;5.38;;;1.00;;
43678;SDS011;29279;50.858;4.392;2024-01-30T14:25:43;7.03;;;1.27;;
43678;SDS011;29279;50.858;4.392;2024-01-30T14:28:09;7.60;;;1.58;;
43678;SDS011;29279;50.858;4.392;2024-01-30T14:30:35;8.43;;;1.25;;
43678;SDS011;29279;50.858;4.392;2024-01-30T14:33:01;4.72;;;1.23;;
43678;SDS011;29279;50.858;4.392;2024-01-30T14:35:27;8.68;;;1.20;;
43678;SDS011;29279;50.858;4.392;2024-01-30T14:37:52;5.95;;;1.13;;
43678;SDS011;29279;50.858;4.392;2024-01-30T14:40:18;12.57;;;2.30;;
43678;SDS011;29279;50.858;4.392;2024-01-30T14:42:44;5.53;;;1.40;;